Shinei Maru — JM6456 — position and weather

sailwx.info

Track history (hours):
 
Tides and Currents Weather Stations Pressure Air Temp Water Temp Dewpoint Dewpoint Depression Visibility Wind Speed Wind Dir Waves Ship Positions

Shinei Maru

Last reported at 2018-Feb-24 19:29 UTC. Time now 2018-Feb-24 19:40 UTC.
Position N 34°41' E 135°17'.

Length 41 m.

Type: Tanker. MMSI: 431008799.

Date/timePositionNaut miles runAvg speedWind from/ knotsBaromVisibWave heightAir tempDewpointWater temp
2018-Feb-24 19:29N 34°41' E 135°17'4 9.3
2018-Feb-24 19:00N 34°40' E 135°22'4 8.7
2018-Feb-24 18:30N 34°39' E 135°27'0 0.6
2018-Feb-24 17:59N 34°39' E 135°28'0 0.0
2018-Feb-24 17:29N 34°39' E 135°28'0 0.0
2018-Feb-24 16:56N 34°39' E 135°28'0 0.0
2018-Feb-24 16:29N 34°39' E 135°28'0 0.0
2018-Feb-24 15:59N 34°39' E 135°28'0 0.0
2018-Feb-24 15:29N 34°39' E 135°28'0 0.0
2018-Feb-24 14:59N 34°39' E 135°28'0 0.0
2018-Feb-24 14:29N 34°39' E 135°28'0 0.0
2018-Feb-24 13:59N 34°39' E 135°28'0 0.0
2018-Feb-24 13:29N 34°39' E 135°28'0 0.0
2018-Feb-24 12:59N 34°39' E 135°28'0 0.0
2018-Feb-24 12:29N 34°39' E 135°28'0 0.0
2018-Feb-24 11:56N 34°39' E 135°28'0 0.0
2018-Feb-24 11:26N 34°39' E 135°28'0 0.0
2018-Feb-24 10:59N 34°39' E 135°28'0 0.0
2018-Feb-24 10:29N 34°39' E 135°28'0 0.0
2018-Feb-24 09:59N 34°39' E 135°28'0 0.0
2018-Feb-24 09:29N 34°39' E 135°28'0 0.0
2018-Feb-24 08:59N 34°39' E 135°28'0 0.0
2018-Feb-24 08:29N 34°39' E 135°28'0 0.0
2018-Feb-24 07:59N 34°39' E 135°28'0 0.0
2018-Feb-24 07:29N 34°39' E 135°28'0 0.0
2018-Feb-24 06:59N 34°39' E 135°28'0 0.0
2018-Feb-24 06:26N 34°39' E 135°28'0 0.0
2018-Feb-24 05:59N 34°39' E 135°28'0 0.0
2018-Feb-24 05:29N 34°39' E 135°28'0 0.0
2018-Feb-24 04:59N 34°39' E 135°28'0 0.0
2018-Feb-24 04:29N 34°39' E 135°28'0 0.0
2018-Feb-24 03:59N 34°39' E 135°28'2 3.4
2018-Feb-24 03:30N 34°37' E 135°26'3 6.5
2018-Feb-24 03:00N 34°34' E 135°26'0 0.0
2018-Feb-24 02:30N 34°34' E 135°26'2 3.8
2018-Feb-24 02:00N 34°36' E 135°24'5 9.1
2018-Feb-24 01:30N 34°31' E 135°24'0 0.1
2018-Feb-24 00:59N 34°31' E 135°24'1 1.5
2018-Feb-24 00:30N 34°32' E 135°24'2 4.7
2018-Feb-23 23:59N 34°33' E 135°27'0 0.2
2018-Feb-23 23:30N 34°33' E 135°27'3 6.7
2018-Feb-23 23:00N 34°36' E 135°24'4 8.0
2018-Feb-23 22:30N 34°39' E 135°27'0 0.6
2018-Feb-23 21:59N 34°39' E 135°28'0 0.0
2018-Feb-23 21:29N 34°39' E 135°28'0 0.0
2018-Feb-23 20:59N 34°39' E 135°28'0 0.0
2018-Feb-23 20:29N 34°39' E 135°28'0 0.0
2018-Feb-23 19:59N 34°39' E 135°28'0 0.0
2018-Feb-23 19:29N 34°39' E 135°28'0 0.0
2018-Feb-23 18:59N 34°39' E 135°28'0 0.0
2018-Feb-23 18:29N 34°39' E 135°28'0 0.0
2018-Feb-23 17:59N 34°39' E 135°28'0 0.0
2018-Feb-23 17:29N 34°39' E 135°28'0 0.0
2018-Feb-23 16:59N 34°39' E 135°28'0 0.0
2018-Feb-23 16:29N 34°39' E 135°28'0 0.0
2018-Feb-23 15:59N 34°39' E 135°28'0 0.0
2018-Feb-23 15:29N 34°39' E 135°28'0 0.0
2018-Feb-23 14:59N 34°39' E 135°28'0 0.0
2018-Feb-23 14:29N 34°39' E 135°28'0 0.0
2018-Feb-23 13:59N 34°39' E 135°28'0 0.0
2018-Feb-23 13:29N 34°39' E 135°28'0 0.0
2018-Feb-23 12:59N 34°39' E 135°28'0 0.0
2018-Feb-23 12:29N 34°39' E 135°28'0 0.0
2018-Feb-23 11:59N 34°39' E 135°28'0 0.0
2018-Feb-23 11:29N 34°39' E 135°28'0 0.0
2018-Feb-23 10:59N 34°39' E 135°28'0 0.0
2018-Feb-23 10:29N 34°39' E 135°28'0 0.0
2018-Feb-23 09:59N 34°39' E 135°28'0 0.0
2018-Feb-23 09:29N 34°39' E 135°28'0 0.0
2018-Feb-23 08:59N 34°39' E 135°28'0 0.0
2018-Feb-23 08:29N 34°39' E 135°28'0 0.0
2018-Feb-23 07:59N 34°39' E 135°28'0 0.0
2018-Feb-23 07:29N 34°39' E 135°28'0 0.0
2018-Feb-23 06:59N 34°39' E 135°28'0 0.0
2018-Feb-23 06:29N 34°39' E 135°28'0 0.0
2018-Feb-23 05:56N 34°39' E 135°28'0 0.0
2018-Feb-23 05:29N 34°39' E 135°28'0 0.5
2018-Feb-23 04:59N 34°39' E 135°28'1 2.0
2018-Feb-23 04:30N 34°39' E 135°27'5 9.5
2018-Feb-23 04:00N 34°40' E 135°21'4 6.8
2018-Feb-23 03:28N 34°41' E 135°17'0 0.0
2018-Feb-23 02:58N 34°41' E 135°17'0 0.5
2018-Feb-23 02:30N 34°41' E 135°17'4 7.9
2018-Feb-23 02:00N 34°38' E 135°20'4 8.6
2018-Feb-23 01:30N 34°34' E 135°23'2 4.7
2018-Feb-23 01:00N 34°33' E 135°26'0 0.1
2018-Feb-23 00:29N 34°33' E 135°26'0 0.0
2018-Feb-22 23:59N 34°33' E 135°26'0 0.0
2018-Feb-22 23:29N 34°33' E 135°26'0 0.7
2018-Feb-22 22:58N 34°33' E 135°25'0 0.0
2018-Feb-22 22:28N 34°33' E 135°25'1 3.0
2018-Feb-22 22:00N 34°34' E 135°24'5 9.5
2018-Feb-22 21:30N 34°36' E 135°19'2 3.1
2018-Feb-22 21:00N 34°37' E 135°17'0 0.0
2018-Feb-22 20:30N 34°37' E 135°17'0 0.0
2018-Feb-22 20:00N 34°37' E 135°17'0 0.0
2018-Feb-22 19:30N 34°37' E 135°17'4 8.2
2018-Feb-22 19:00N 34°38' E 135°22'4 8.8
2018-Feb-22 18:30N 34°39' E 135°27'0 0.4
2018-Feb-22 18:00N 34°39' E 135°28'0 0.0
2018-Feb-22 17:30N 34°39' E 135°28'0 0.0
2018-Feb-22 17:00N 34°39' E 135°28'0 0.0
2018-Feb-22 16:30N 34°39' E 135°28'0 0.0
2018-Feb-22 16:00N 34°39' E 135°28'0 0.0
2018-Feb-22 15:30N 34°39' E 135°28'0 0.0
2018-Feb-22 15:00N 34°39' E 135°28'0 0.0
2018-Feb-22 14:27N 34°39' E 135°28'0 0.0
2018-Feb-22 14:00N 34°39' E 135°28'0 0.0
2018-Feb-22 13:27N 34°39' E 135°28'0 0.0
2018-Feb-22 13:00N 34°39' E 135°28'0 0.0
2018-Feb-22 12:30N 34°39' E 135°28'0 0.0
2018-Feb-22 12:00N 34°39' E 135°28'0 0.0
2018-Feb-22 11:30N 34°39' E 135°28'0 0.0
2018-Feb-22 11:00N 34°39' E 135°28'0 0.0
2018-Feb-22 10:30N 34°39' E 135°28'0 0.0
2018-Feb-22 10:00N 34°39' E 135°28'0 0.0
2018-Feb-22 09:30N 34°39' E 135°28'0 0.0
2018-Feb-22 08:59N 34°39' E 135°28'3 7.1
2018-Feb-22 08:30N 34°40' E 135°24'5 9.7
2018-Feb-22 08:00N 34°41' E 135°18'1 2.0
2018-Feb-22 07:31N 34°41' E 135°17'0 0.1
2018-Feb-22 06:59N 34°41' E 135°17'0 0.4
2018-Feb-22 06:30N 34°41' E 135°16'2 3.2
2018-Feb-22 05:58N 34°41' E 135°14'0 0.0
2018-Feb-22 05:28N 34°41' E 135°14'2 4.1
2018-Feb-22 05:00N 34°41' E 135°12'0 0.4
2018-Feb-22 04:30N 34°41' E 135°12'0 0.0
2018-Feb-22 04:00N 34°41' E 135°12'0 0.0
2018-Feb-22 03:30N 34°41' E 135°12'0 0.0
2018-Feb-22 03:00N 34°41' E 135°12'0 0.5
2018-Feb-22 02:28N 34°41' E 135°12'2 4.7
2018-Feb-22 02:00N 34°39' E 135°13'5 9.5
2018-Feb-22 01:30N 34°37' E 135°18'4 8.9
2018-Feb-22 01:00N 34°34' E 135°23'3 5.5
2018-Feb-22 00:30N 34°33' E 135°26'0 0.0
2018-Feb-21 23:59N 34°33' E 135°26'0 0.0
2018-Feb-21 23:30N 34°33' E 135°26'1 1.1
2018-Feb-21 23:00N 34°33' E 135°25'3 6.2
2018-Feb-21 22:31N 34°36' E 135°25'3 6.3
2018-Feb-21 21:58N 34°39' E 135°28'0 0.0
2018-Feb-21 21:28N 34°39' E 135°28'0 0.0
2018-Feb-21 20:55N 34°39' E 135°28'0 0.0
2018-Feb-21 20:28N 34°39' E 135°28'0 0.0
2018-Feb-21 19:58N 34°39' E 135°28'0 0.0
2018-Feb-21 19:25N 34°39' E 135°28'0 0.0
2018-Feb-21 18:58N 34°39' E 135°28'0 0.0
2018-Feb-21 18:25N 34°39' E 135°28'0 0.0
2018-Feb-21 17:58N 34°39' E 135°28'0 0.0
2018-Feb-21 17:25N 34°39' E 135°28'0 0.0
2018-Feb-21 16:58N 34°39' E 135°28'0 0.0
2018-Feb-21 16:25N 34°39' E 135°28'0 0.0
2018-Feb-21 15:55N 34°39' E 135°28'0 0.0
2018-Feb-21 15:28N 34°39' E 135°28'0 0.0
2018-Feb-21 14:58N 34°39' E 135°28'0 0.0
2018-Feb-21 14:28N 34°39' E 135°28'0 0.0
2018-Feb-21 13:59N 34°39' E 135°28'0 0.0
2018-Feb-21 13:28N 34°39' E 135°28'0 0.0
2018-Feb-21 12:58N 34°39' E 135°28'0 0.0
2018-Feb-21 12:28N 34°39' E 135°28'0 0.0
2018-Feb-21 11:58N 34°39' E 135°28'0 0.0
2018-Feb-21 11:25N 34°39' E 135°28'0 0.0
2018-Feb-21 10:58N 34°39' E 135°28'0 0.0
2018-Feb-21 10:28N 34°39' E 135°28'0 0.0
2018-Feb-21 09:55N 34°39' E 135°28'0 0.0
2018-Feb-21 09:28N 34°39' E 135°28'0 0.0
2018-Feb-21 08:58N 34°39' E 135°28'0 0.0
2018-Feb-21 08:28N 34°39' E 135°28'0 0.0
2018-Feb-21 07:58N 34°39' E 135°28'0 0.0
2018-Feb-21 07:25N 34°39' E 135°28'0 0.0
2018-Feb-21 06:55N 34°39' E 135°28'0 0.0
2018-Feb-21 06:28N 34°39' E 135°28'0 0.0
2018-Feb-21 05:55N 34°39' E 135°28'1 2.5
2018-Feb-21 05:29N 34°38' E 135°28'0 0.0
2018-Feb-21 04:59N 34°38' E 135°28'2 3.6
2018-Feb-21 04:30N 34°37' E 135°26'4 8.4
2018-Feb-21 04:00N 34°36' E 135°21'3 5.1
2018-Feb-21 03:27N 34°34' E 135°18'0 0.1
2018-Feb-21 03:00N 34°34' E 135°18'2 4.7
2018-Feb-21 02:30N 34°33' E 135°20'2 4.2
2018-Feb-21 01:58N 34°33' E 135°23'0 0.0
2018-Feb-21 01:28N 34°33' E 135°23'1 1.9
2018-Feb-21 01:00N 34°32' E 135°24'1 2.0
2018-Feb-21 00:28N 34°31' E 135°24'1 2.3
2018-Feb-21 00:00N 34°32' E 135°23'4 8.9
2018-Feb-20 23:30N 34°36' E 135°21'4 8.9
2018-Feb-20 23:00N 34°40' E 135°18'2 3.4
2018-Feb-20 22:29N 34°41' E 135°17'0 0.0
2018-Feb-20 21:59N 34°41' E 135°17'4 7.3
2018-Feb-20 21:30N 34°40' E 135°21'4 9.0
2018-Feb-20 21:01N 34°39' E 135°26'1 2.4
2018-Feb-20 20:28N 34°39' E 135°28'0 0.0
2018-Feb-20 19:58N 34°39' E 135°28'0 0.0
2018-Feb-20 19:28N 34°39' E 135°28'0 0.0
2018-Feb-20 18:58N 34°39' E 135°28'0 0.0
2018-Feb-20 18:28N 34°39' E 135°28'0 0.0
2018-Feb-20 17:58N 34°39' E 135°28'0 0.0
2018-Feb-20 17:28N 34°39' E 135°28'0 0.0
2018-Feb-20 16:58N 34°39' E 135°28'0 0.0
2018-Feb-20 16:28N 34°39' E 135°28'0 0.0
2018-Feb-20 15:58N 34°39' E 135°28'0 0.0
2018-Feb-20 15:28N 34°39' E 135°28'0 0.0
2018-Feb-20 14:58N 34°39' E 135°28'0 0.0
2018-Feb-20 14:28N 34°39' E 135°28'0 0.0
2018-Feb-20 13:58N 34°39' E 135°28'0 0.0
2018-Feb-20 13:28N 34°39' E 135°28'0 0.0
2018-Feb-20 12:58N 34°39' E 135°28'0 0.0
2018-Feb-20 12:28N 34°39' E 135°28'0 0.0
2018-Feb-20 11:58N 34°39' E 135°28'0 0.0
2018-Feb-20 11:28N 34°39' E 135°28'0 0.0
2018-Feb-20 10:58N 34°39' E 135°28'0 0.0
2018-Feb-20 10:28N 34°39' E 135°28'0 0.0
2018-Feb-20 09:58N 34°39' E 135°28'0 0.0
2018-Feb-20 09:25N 34°39' E 135°28'0 0.0
2018-Feb-20 08:58N 34°39' E 135°28'0 0.0
2018-Feb-20 08:28N 34°39' E 135°28'0 0.0
2018-Feb-20 07:58N 34°39' E 135°28'0 0.0
2018-Feb-20 07:28N 34°39' E 135°28'0 0.0
2018-Feb-20 06:58N 34°39' E 135°28'0 0.0
2018-Feb-20 06:28N 34°39' E 135°28'0 0.0
2018-Feb-20 05:58N 34°39' E 135°28'0 0.0
2018-Feb-20 05:28N 34°39' E 135°28'0 0.0
2018-Feb-20 04:55N 34°39' E 135°28'0 0.0
2018-Feb-20 04:25N 34°39' E 135°28'0 0.0
2018-Feb-20 03:58N 34°39' E 135°28'0 0.0
2018-Feb-20 03:28N 34°39' E 135°28'0 0.0
2018-Feb-20 02:58N 34°39' E 135°28'0 0.0
2018-Feb-20 02:28N 34°39' E 135°28'0 0.0
2018-Feb-20 01:58N 34°39' E 135°28'0 0.0
2018-Feb-20 01:28N 34°39' E 135°28'0 0.0
2018-Feb-20 00:58N 34°39' E 135°28'0 0.0
2018-Feb-20 00:25N 34°39' E 135°28'0 0.0
2018-Feb-19 23:58N 34°39' E 135°28'0 0.0
2018-Feb-19 23:28N 34°39' E 135°28'0 0.0
2018-Feb-19 22:58N 34°39' E 135°28'0 0.0
2018-Feb-19 22:28N 34°39' E 135°28'0 0.0
2018-Feb-19 21:58N 34°39' E 135°28'0 0.0
2018-Feb-19 21:25N 34°39' E 135°28'0 0.0
2018-Feb-19 20:58N 34°39' E 135°28'0 0.0
2018-Feb-19 20:28N 34°39' E 135°28'0 0.0
2018-Feb-19 19:58N 34°39' E 135°28'0 0.0
2018-Feb-19 19:28N 34°39' E 135°28'0 0.0
2018-Feb-19 18:58N 34°39' E 135°28'0 0.0
2018-Feb-19 18:28N 34°39' E 135°28'0 0.0
2018-Feb-19 17:58N 34°39' E 135°28'0 0.0
2018-Feb-19 17:28N 34°39' E 135°28'0 0.0
2018-Feb-19 16:58N 34°39' E 135°28'0 0.0
2018-Feb-19 16:25N 34°39' E 135°28'0 0.0
2018-Feb-19 15:58N 34°39' E 135°28'0 0.0
2018-Feb-19 15:28N 34°39' E 135°28'0 0.0
2018-Feb-19 14:58N 34°39' E 135°28'0 0.0
2018-Feb-19 14:28N 34°39' E 135°28'0 0.0
2018-Feb-19 13:58N 34°39' E 135°28'0 0.0
2018-Feb-19 13:28N 34°39' E 135°28'0 0.0
2018-Feb-19 12:58N 34°39' E 135°28'0 0.0
2018-Feb-19 12:28N 34°39' E 135°28'0 0.0
2018-Feb-19 11:58N 34°39' E 135°28'0 0.0
2018-Feb-19 11:28N 34°39' E 135°28'0 0.0
2018-Feb-19 10:58N 34°39' E 135°28'0 0.0
2018-Feb-19 10:25N 34°39' E 135°28'0 0.0
2018-Feb-19 09:58N 34°39' E 135°28'0 0.0
2018-Feb-19 09:28N 34°39' E 135°28'0 0.0
2018-Feb-19 08:58N 34°39' E 135°28'0 0.0
2018-Feb-19 08:22N 34°39' E 135°28'0 0.0
2018-Feb-19 07:58N 34°39' E 135°28'0 0.8
2018-Feb-19 07:30N 34°39' E 135°27'4 8.3
2018-Feb-19 07:00N 34°35' E 135°24'3 5.2
2018-Feb-19 06:28N 34°33' E 135°26'0 0.0
2018-Feb-19 05:58N 34°33' E 135°26'0 0.0
2018-Feb-19 05:28N 34°33' E 135°26'1 2.5
2018-Feb-19 05:00N 34°33' E 135°24'3 6.8
2018-Feb-19 04:30N 34°37' E 135°25'3 4.9
2018-Feb-19 03:59N 34°35' E 135°23'0 0.0
2018-Feb-19 03:29N 34°35' E 135°23'0 0.0
2018-Feb-19 02:59N 34°35' E 135°23'1 3.0
2018-Feb-19 02:30N 34°36' E 135°24'3 5.1
2018-Feb-19 01:58N 34°38' E 135°27'0 0.1
2018-Feb-19 01:28N 34°38' E 135°27'0 0.1
2018-Feb-19 00:58N 34°38' E 135°27'0 0.1
2018-Feb-19 00:28N 34°38' E 135°27'0 0.0
2018-Feb-18 23:58N 34°38' E 135°27'1 1.7
2018-Feb-18 23:28N 34°38' E 135°28'0 0.0
2018-Feb-18 22:58N 34°38' E 135°28'0 0.0
2018-Feb-18 22:30N 34°38' E 135°28'3 6.9
2018-Feb-18 22:00N 34°40' E 135°24'2 3.5
2018-Feb-18 21:30N 34°39' E 135°22'1 1.8
2018-Feb-18 21:00N 34°40' E 135°22'4 8.6
2018-Feb-18 20:31N 34°39' E 135°27'0 0.4
2018-Feb-18 20:00N 34°39' E 135°28'0 0.0
2018-Feb-18 19:30N 34°39' E 135°28'0 0.0
2018-Feb-18 19:00N 34°39' E 135°28'0 0.0
2018-Feb-18 18:30N 34°39' E 135°28'0 0.0
2018-Feb-18 18:00N 34°39' E 135°28'0 0.0
2018-Feb-18 17:30N 34°39' E 135°28'0 0.0
2018-Feb-18 16:57N 34°39' E 135°28'0 0.0
2018-Feb-18 16:30N 34°39' E 135°28'0 0.0
2018-Feb-18 16:00N 34°39' E 135°28'0 0.0
2018-Feb-18 15:30N 34°39' E 135°28'0 0.0
2018-Feb-18 15:00N 34°39' E 135°28'0 0.0
2018-Feb-18 14:30N 34°39' E 135°28'0 0.0
2018-Feb-18 14:00N 34°39' E 135°28'0 0.0
2018-Feb-18 13:30N 34°39' E 135°28'0 0.0
2018-Feb-18 13:00N 34°39' E 135°28'0 0.0
2018-Feb-18 12:30N 34°39' E 135°28'0 0.0
2018-Feb-18 12:00N 34°39' E 135°28'0 0.0
2018-Feb-18 11:30N 34°39' E 135°28'0 0.0
2018-Feb-18 11:00N 34°39' E 135°28'0 0.0
2018-Feb-18 10:30N 34°39' E 135°28'0 0.0
2018-Feb-18 10:00N 34°39' E 135°28'0 0.0
2018-Feb-18 09:30N 34°39' E 135°28'0 0.0
2018-Feb-18 09:00N 34°39' E 135°28'0 0.0
2018-Feb-18 08:30N 34°39' E 135°28'0 0.0
2018-Feb-18 08:00N 34°39' E 135°28'2 3.5
2018-Feb-18 07:30N 34°37' E 135°26'3 6.0
2018-Feb-18 06:59N 34°34' E 135°26'0 0.0
2018-Feb-18 06:29N 34°34' E 135°26'0 0.0
2018-Feb-18 05:57N 34°34' E 135°26'4 8.3
2018-Feb-18 05:30N 34°37' E 135°23'5 9.7
2018-Feb-18 05:00N 34°41' E 135°19'2 3.7
2018-Feb-18 04:29N 34°42' E 135°17'0 0.0
2018-Feb-18 03:59N 34°42' E 135°17'0 0.0
2018-Feb-18 03:29N 34°42' E 135°17'3 5.5
2018-Feb-18 03:00N 34°41' E 135°14'2 3.1
2018-Feb-18 02:30N 34°41' E 135°12'1 2.2
2018-Feb-18 02:00N 34°40' E 135°12'0 0.9
2018-Feb-18 01:29N 34°39' E 135°12'2 3.9
2018-Feb-18 01:00N 34°39' E 135°14'5 9.6
2018-Feb-18 00:29N 34°39' E 135°20'4 9.4
2018-Feb-18 00:00N 34°39' E 135°26'2 3.0
2018-Feb-17 23:29N 34°39' E 135°28'0 0.0
2018-Feb-17 22:59N 34°39' E 135°28'0 0.0
2018-Feb-17 22:29N 34°39' E 135°28'0 0.0
2018-Feb-17 21:59N 34°39' E 135°28'0 0.0
2018-Feb-17 21:29N 34°39' E 135°28'0 0.0
2018-Feb-17 20:59N 34°39' E 135°28'0 0.0
2018-Feb-17 20:29N 34°39' E 135°28'0 0.0
2018-Feb-17 19:59N 34°39' E 135°28'0 0.0
2018-Feb-17 19:29N 34°39' E 135°28'0 0.0
2018-Feb-17 18:59N 34°39' E 135°28'0 0.0
2018-Feb-17 18:29N 34°39' E 135°28'0 0.0
2018-Feb-17 17:59N 34°39' E 135°28'0 0.0
2018-Feb-17 17:29N 34°39' E 135°28'0 0.0
2018-Feb-17 16:59N 34°39' E 135°28'0 0.0
2018-Feb-17 16:26N 34°39' E 135°28'0 0.0
2018-Feb-17 15:59N 34°39' E 135°28'0 0.0
2018-Feb-17 15:29N 34°39' E 135°28'0 0.0
2018-Feb-17 14:59N 34°39' E 135°28'0 0.0
2018-Feb-17 14:29N 34°39' E 135°28'0 0.0
2018-Feb-17 13:59N 34°39' E 135°28'0 0.0
2018-Feb-17 13:26N 34°39' E 135°28'0 0.0
2018-Feb-17 12:59N 34°39' E 135°28'0 0.0
2018-Feb-17 12:29N 34°39' E 135°28'0 0.0
2018-Feb-17 11:59N 34°39' E 135°28'0 0.0
2018-Feb-17 11:29N 34°39' E 135°28'0 0.0
2018-Feb-17 10:59N 34°39' E 135°28'0 0.0
2018-Feb-17 10:29N 34°39' E 135°28'0 0.0
2018-Feb-17 09:59N 34°39' E 135°28'0 0.0
2018-Feb-17 09:29N 34°39' E 135°28'0 0.0
2018-Feb-17 08:59N 34°39' E 135°28'0 0.0
2018-Feb-17 08:29N 34°39' E 135°28'0 0.0
2018-Feb-17 07:59N 34°39' E 135°28'0 0.0
2018-Feb-17 07:29N 34°39' E 135°28'0 0.0
2018-Feb-17 06:56N 34°39' E 135°28'0 0.0
2018-Feb-17 06:29N 34°39' E 135°28'0 0.0
2018-Feb-17 05:59N 34°39' E 135°28'0 0.0
2018-Feb-17 05:29N 34°39' E 135°28'0 0.0
2018-Feb-17 04:59N 34°39' E 135°28'0 0.0
2018-Feb-17 04:29N 34°39' E 135°28'1 1.4
2018-Feb-17 04:01N 34°38' E 135°27'4 7.9
2018-Feb-17 03:31N 34°35' E 135°26'0 0.8
2018-Feb-17 03:00N 34°34' E 135°26'0 0.0
2018-Feb-17 02:30N 34°34' E 135°26'2 3.2
2018-Feb-17 02:00N 34°36' E 135°25'2 4.4
2018-Feb-17 01:28N 34°38' E 135°25'0 0.0
2018-Feb-17 00:58N 34°38' E 135°25'0 0.0
2018-Feb-17 00:28N 34°38' E 135°25'1 2.9
2018-Feb-17 00:01N 34°38' E 135°23'4 8.8
2018-Feb-16 23:31N 34°33' E 135°24'2 3.8
2018-Feb-16 22:59N 34°31' E 135°24'0 0.7
2018-Feb-16 22:29N 34°31' E 135°24'2 3.8
2018-Feb-16 22:00N 34°33' E 135°24'4 8.8
2018-Feb-16 21:30N 34°36' E 135°20'5 9.2
2018-Feb-16 21:00N 34°39' E 135°15'3 7.0
2018-Feb-16 20:30N 34°41' E 135°12'0 0.0
2018-Feb-16 20:00N 34°41' E 135°12'3 6.5
2018-Feb-16 19:30N 34°39' E 135°15'4 8.7
2018-Feb-16 19:00N 34°39' E 135°20'4 8.8
2018-Feb-16 18:30N 34°39' E 135°26'2 3.1
2018-Feb-16 17:59N 34°39' E 135°28'0 0.0
2018-Feb-16 17:26N 34°39' E 135°28'0 0.0
2018-Feb-16 16:56N 34°39' E 135°28'0 0.0
2018-Feb-16 16:20N 34°39' E 135°28'0 0.0
2018-Feb-16 15:59N 34°39' E 135°28'0 0.0
2018-Feb-16 15:29N 34°39' E 135°28'0 0.0
2018-Feb-16 14:59N 34°39' E 135°28'0 0.0
2018-Feb-16 14:29N 34°39' E 135°28'0 0.0
2018-Feb-16 13:59N 34°39' E 135°28'0 0.0
2018-Feb-16 13:29N 34°39' E 135°28'0 0.0
2018-Feb-16 12:56N 34°39' E 135°28'0 0.0
2018-Feb-16 12:29N 34°39' E 135°28'0 0.0
2018-Feb-16 11:59N 34°39' E 135°28'0 0.0
2018-Feb-16 11:26N 34°39' E 135°28'0 0.0
2018-Feb-16 10:59N 34°39' E 135°28'0 0.0
2018-Feb-16 10:29N 34°39' E 135°28'0 0.0
2018-Feb-16 09:56N 34°39' E 135°28'0 0.0
2018-Feb-16 09:29N 34°39' E 135°28'0 0.0
2018-Feb-16 08:56N 34°39' E 135°28'0 0.0
2018-Feb-16 08:26N 34°39' E 135°28'0 0.0
2018-Feb-16 07:56N 34°39' E 135°28'0 0.0
2018-Feb-16 07:29N 34°39' E 135°28'0 0.0
2018-Feb-16 07:00N 34°39' E 135°28'3 6.6
2018-Feb-16 06:30N 34°36' E 135°25'3 6.4
2018-Feb-16 06:00N 34°33' E 135°26'0 0.3
2018-Feb-16 05:30N 34°33' E 135°26'0 0.0
2018-Feb-16 05:00N 34°33' E 135°26'0 0.3
2018-Feb-16 04:27N 34°33' E 135°26'0 0.1
2018-Feb-16 03:58N 34°33' E 135°26'0 0.0
2018-Feb-16 03:28N 34°33' E 135°26'2 3.6
2018-Feb-16 03:00N 34°34' E 135°24'3 5.8
2018-Feb-16 02:25N 34°37' E 135°26'0 0.1
2018-Feb-16 01:58N 34°37' E 135°26'0 0.1
2018-Feb-16 01:28N 34°37' E 135°26'0 0.0
2018-Feb-16 00:58N 34°37' E 135°26'0 0.2
2018-Feb-16 00:30N 34°37' E 135°26'4 8.0
2018-Feb-16 00:00N 34°37' E 135°21'4 8.9
2018-Feb-15 23:30N 34°37' E 135°16'1 1.5
2018-Feb-15 23:00N 34°37' E 135°15'0 0.0
2018-Feb-15 22:30N 34°37' E 135°15'0 0.5
2018-Feb-15 22:00N 34°37' E 135°15'5 9.0
2018-Feb-15 21:30N 34°38' E 135°20'5 9.1
2018-Feb-15 21:00N 34°39' E 135°26'2 2.9
2018-Feb-15 20:28N 34°39' E 135°28'0 0.0
2018-Feb-15 19:58N 34°39' E 135°28'0 0.0
2018-Feb-15 19:25N 34°39' E 135°28'0 0.0
2018-Feb-15 18:58N 34°39' E 135°28'0 0.0
2018-Feb-15 18:28N 34°39' E 135°28'0 0.0
2018-Feb-15 17:58N 34°39' E 135°28'0 0.0
2018-Feb-15 17:28N 34°39' E 135°28'0 0.0
2018-Feb-15 16:58N 34°39' E 135°28'0 0.0
2018-Feb-15 16:28N 34°39' E 135°28'0 0.0
2018-Feb-15 15:58N 34°39' E 135°28'0 0.0
2018-Feb-15 15:28N 34°39' E 135°28'0 0.0
2018-Feb-15 14:58N 34°39' E 135°28'0 0.0
2018-Feb-15 14:28N 34°39' E 135°28'0 0.0
2018-Feb-15 13:58N 34°39' E 135°28'0 0.0
2018-Feb-15 13:28N 34°39' E 135°28'0 0.0
2018-Feb-15 12:58N 34°39' E 135°28'0 0.0
2018-Feb-15 12:28N 34°39' E 135°28'0 0.0
2018-Feb-15 11:58N 34°39' E 135°28'0 0.0
2018-Feb-15 11:28N 34°39' E 135°28'0 0.0
2018-Feb-15 10:55N 34°39' E 135°28'0 0.0
2018-Feb-15 10:28N 34°39' E 135°28'0 0.0
2018-Feb-15 09:58N 34°39' E 135°28'0 0.0
2018-Feb-15 09:28N 34°39' E 135°28'0 0.0
2018-Feb-15 08:58N 34°39' E 135°28'0 0.0
2018-Feb-15 08:28N 34°39' E 135°28'0 0.0
2018-Feb-15 07:58N 34°39' E 135°28'0 0.0
2018-Feb-15 07:28N 34°39' E 135°28'0 0.0
2018-Feb-15 06:58N 34°39' E 135°28'0 0.0
2018-Feb-15 06:25N 34°39' E 135°28'0 0.0
2018-Feb-15 05:58N 34°39' E 135°28'0 0.0
2018-Feb-15 05:28N 34°39' E 135°28'0 0.0
2018-Feb-15 04:58N 34°39' E 135°28'0 0.0
2018-Feb-15 04:28N 34°39' E 135°28'0 0.0
2018-Feb-15 03:55N 34°39' E 135°28'0 0.0
2018-Feb-15 03:28N 34°39' E 135°28'0 0.0
2018-Feb-15 02:58N 34°39' E 135°28'0 0.0
2018-Feb-15 02:28N 34°39' E 135°28'0 0.0
2018-Feb-15 01:55N 34°39' E 135°28'0 0.0
2018-Feb-15 01:28N 34°39' E 135°28'0 0.0
2018-Feb-15 00:58N 34°39' E 135°28'0 0.0
2018-Feb-15 00:25N 34°39' E 135°28'0 0.0
2018-Feb-14 23:58N 34°39' E 135°28'0 0.0
2018-Feb-14 23:28N 34°39' E 135°28'0 0.0
2018-Feb-14 22:58N 34°39' E 135°28'0 0.0
2018-Feb-14 22:25N 34°39' E 135°28'0 0.0
2018-Feb-14 21:58N 34°39' E 135°28'0 0.0
2018-Feb-14 21:28N 34°39' E 135°28'0 0.0
2018-Feb-14 20:58N 34°39' E 135°28'0 0.0
2018-Feb-14 20:28N 34°39' E 135°28'0 0.0
2018-Feb-14 19:55N 34°39' E 135°28'  
Track history (hours):
 
Tides and Currents Weather Stations Pressure Air Temp Water Temp Dewpoint Dewpoint Depression Visibility Wind Speed Wind Dir Waves Ship Positions

Shinei Maru

Last reported at 2018-Feb-24 19:29 UTC. Time now 2018-Feb-24 19:40 UTC.
Position N 34°41' E 135°17'.

Length 41 m.

Type: Tanker. MMSI: 431008799.

Date/timePositionNaut miles runAvg speedWind from/ knotsBaromVisibWave heightAir tempDewpointWater temp
2018-Feb-24 19:29N 34°41' E 135°17'4 9.3
2018-Feb-24 19:00N 34°40' E 135°22'4 8.7
2018-Feb-24 18:30N 34°39' E 135°27'0 0.6
2018-Feb-24 17:59N 34°39' E 135°28'0 0.0
2018-Feb-24 17:29N 34°39' E 135°28'0 0.0
2018-Feb-24 16:56N 34°39' E 135°28'0 0.0
2018-Feb-24 16:29N 34°39' E 135°28'0 0.0
2018-Feb-24 15:59N 34°39' E 135°28'0 0.0
2018-Feb-24 15:29N 34°39' E 135°28'0 0.0
2018-Feb-24 14:59N 34°39' E 135°28'0 0.0
2018-Feb-24 14:29N 34°39' E 135°28'0 0.0
2018-Feb-24 13:59N 34°39' E 135°28'0 0.0
2018-Feb-24 13:29N 34°39' E 135°28'0 0.0
2018-Feb-24 12:59N 34°39' E 135°28'0 0.0
2018-Feb-24 12:29N 34°39' E 135°28'0 0.0
2018-Feb-24 11:56N 34°39' E 135°28'0 0.0
2018-Feb-24 11:26N 34°39' E 135°28'0 0.0
2018-Feb-24 10:59N 34°39' E 135°28'0 0.0
2018-Feb-24 10:29N 34°39' E 135°28'0 0.0
2018-Feb-24 09:59N 34°39' E 135°28'0 0.0
2018-Feb-24 09:29N 34°39' E 135°28'0 0.0
2018-Feb-24 08:59N 34°39' E 135°28'0 0.0
2018-Feb-24 08:29N 34°39' E 135°28'0 0.0
2018-Feb-24 07:59N 34°39' E 135°28'0 0.0
2018-Feb-24 07:29N 34°39' E 135°28'0 0.0
2018-Feb-24 06:59N 34°39' E 135°28'0 0.0
2018-Feb-24 06:26N 34°39' E 135°28'0 0.0
2018-Feb-24 05:59N 34°39' E 135°28'0 0.0
2018-Feb-24 05:29N 34°39' E 135°28'0 0.0
2018-Feb-24 04:59N 34°39' E 135°28'0 0.0
2018-Feb-24 04:29N 34°39' E 135°28'0 0.0
2018-Feb-24 03:59N 34°39' E 135°28'2 3.4
2018-Feb-24 03:30N 34°37' E 135°26'3 6.5
2018-Feb-24 03:00N 34°34' E 135°26'0 0.0
2018-Feb-24 02:30N 34°34' E 135°26'2 3.8
2018-Feb-24 02:00N 34°36' E 135°24'5 9.1
2018-Feb-24 01:30N 34°31' E 135°24'0 0.1
2018-Feb-24 00:59N 34°31' E 135°24'1 1.5
2018-Feb-24 00:30N 34°32' E 135°24'2 4.7
2018-Feb-23 23:59N 34°33' E 135°27'0 0.2
2018-Feb-23 23:30N 34°33' E 135°27'3 6.7
2018-Feb-23 23:00N 34°36' E 135°24'4 8.0
2018-Feb-23 22:30N 34°39' E 135°27'0 0.6
2018-Feb-23 21:59N 34°39' E 135°28'0 0.0
2018-Feb-23 21:29N 34°39' E 135°28'0 0.0
2018-Feb-23 20:59N 34°39' E 135°28'0 0.0
2018-Feb-23 20:29N 34°39' E 135°28'0 0.0
2018-Feb-23 19:59N 34°39' E 135°28'0 0.0
2018-Feb-23 19:29N 34°39' E 135°28'0 0.0
2018-Feb-23 18:59N 34°39' E 135°28'0 0.0
2018-Feb-23 18:29N 34°39' E 135°28'0 0.0
2018-Feb-23 17:59N 34°39' E 135°28'0 0.0
2018-Feb-23 17:29N 34°39' E 135°28'0 0.0
2018-Feb-23 16:59N 34°39' E 135°28'0 0.0
2018-Feb-23 16:29N 34°39' E 135°28'0 0.0
2018-Feb-23 15:59N 34°39' E 135°28'0 0.0
2018-Feb-23 15:29N 34°39' E 135°28'0 0.0
2018-Feb-23 14:59N 34°39' E 135°28'0 0.0
2018-Feb-23 14:29N 34°39' E 135°28'0 0.0
2018-Feb-23 13:59N 34°39' E 135°28'0 0.0
2018-Feb-23 13:29N 34°39' E 135°28'0 0.0
2018-Feb-23 12:59N 34°39' E 135°28'0 0.0
2018-Feb-23 12:29N 34°39' E 135°28'0 0.0
2018-Feb-23 11:59N 34°39' E 135°28'0 0.0
2018-Feb-23 11:29N 34°39' E 135°28'0 0.0
2018-Feb-23 10:59N 34°39' E 135°28'0 0.0
2018-Feb-23 10:29N 34°39' E 135°28'0 0.0
2018-Feb-23 09:59N 34°39' E 135°28'0 0.0
2018-Feb-23 09:29N 34°39' E 135°28'0 0.0
2018-Feb-23 08:59N 34°39' E 135°28'0 0.0
2018-Feb-23 08:29N 34°39' E 135°28'0 0.0
2018-Feb-23 07:59N 34°39' E 135°28'0 0.0
2018-Feb-23 07:29N 34°39' E 135°28'0 0.0
2018-Feb-23 06:59N 34°39' E 135°28'0 0.0
2018-Feb-23 06:29N 34°39' E 135°28'0 0.0
2018-Feb-23 05:56N 34°39' E 135°28'0 0.0
2018-Feb-23 05:29N 34°39' E 135°28'0 0.5
2018-Feb-23 04:59N 34°39' E 135°28'1 2.0
2018-Feb-23 04:30N 34°39' E 135°27'5 9.5
2018-Feb-23 04:00N 34°40' E 135°21'4 6.8
2018-Feb-23 03:28N 34°41' E 135°17'0 0.0
2018-Feb-23 02:58N 34°41' E 135°17'0 0.5
2018-Feb-23 02:30N 34°41' E 135°17'4 7.9
2018-Feb-23 02:00N 34°38' E 135°20'4 8.6
2018-Feb-23 01:30N 34°34' E 135°23'2 4.7
2018-Feb-23 01:00N 34°33' E 135°26'0 0.1
2018-Feb-23 00:29N 34°33' E 135°26'0 0.0
2018-Feb-22 23:59N 34°33' E 135°26'0 0.0
2018-Feb-22 23:29N 34°33' E 135°26'0 0.7
2018-Feb-22 22:58N 34°33' E 135°25'0 0.0
2018-Feb-22 22:28N 34°33' E 135°25'1 3.0
2018-Feb-22 22:00N 34°34' E 135°24'5 9.5
2018-Feb-22 21:30N 34°36' E 135°19'2 3.1
2018-Feb-22 21:00N 34°37' E 135°17'0 0.0
2018-Feb-22 20:30N 34°37' E 135°17'0 0.0
2018-Feb-22 20:00N 34°37' E 135°17'0 0.0
2018-Feb-22 19:30N 34°37' E 135°17'4 8.2
2018-Feb-22 19:00N 34°38' E 135°22'4 8.8
2018-Feb-22 18:30N 34°39' E 135°27'0 0.4
2018-Feb-22 18:00N 34°39' E 135°28'0 0.0
2018-Feb-22 17:30N 34°39' E 135°28'0 0.0
2018-Feb-22 17:00N 34°39' E 135°28'0 0.0
2018-Feb-22 16:30N 34°39' E 135°28'0 0.0
2018-Feb-22 16:00N 34°39' E 135°28'0 0.0
2018-Feb-22 15:30N 34°39' E 135°28'0 0.0
2018-Feb-22 15:00N 34°39' E 135°28'0 0.0
2018-Feb-22 14:27N 34°39' E 135°28'0 0.0
2018-Feb-22 14:00N 34°39' E 135°28'0 0.0
2018-Feb-22 13:27N 34°39' E 135°28'0 0.0
2018-Feb-22 13:00N 34°39' E 135°28'0 0.0
2018-Feb-22 12:30N 34°39' E 135°28'0 0.0
2018-Feb-22 12:00N 34°39' E 135°28'0 0.0
2018-Feb-22 11:30N 34°39' E 135°28'0 0.0
2018-Feb-22 11:00N 34°39' E 135°28'0 0.0
2018-Feb-22 10:30N 34°39' E 135°28'0 0.0
2018-Feb-22 10:00N 34°39' E 135°28'0 0.0
2018-Feb-22 09:30N 34°39' E 135°28'0 0.0
2018-Feb-22 08:59N 34°39' E 135°28'3 7.1
2018-Feb-22 08:30N 34°40' E 135°24'5 9.7
2018-Feb-22 08:00N 34°41' E 135°18'1 2.0
2018-Feb-22 07:31N 34°41' E 135°17'0 0.1
2018-Feb-22 06:59N 34°41' E 135°17'0 0.4
2018-Feb-22 06:30N 34°41' E 135°16'2 3.2
2018-Feb-22 05:58N 34°41' E 135°14'0 0.0
2018-Feb-22 05:28N 34°41' E 135°14'2 4.1
2018-Feb-22 05:00N 34°41' E 135°12'0 0.4
2018-Feb-22 04:30N 34°41' E 135°12'0 0.0
2018-Feb-22 04:00N 34°41' E 135°12'0 0.0
2018-Feb-22 03:30N 34°41' E 135°12'0 0.0
2018-Feb-22 03:00N 34°41' E 135°12'0 0.5
2018-Feb-22 02:28N 34°41' E 135°12'2 4.7
2018-Feb-22 02:00N 34°39' E 135°13'5 9.5
2018-Feb-22 01:30N 34°37' E 135°18'4 8.9
2018-Feb-22 01:00N 34°34' E 135°23'3 5.5
2018-Feb-22 00:30N 34°33' E 135°26'0 0.0
2018-Feb-21 23:59N 34°33' E 135°26'0 0.0
2018-Feb-21 23:30N 34°33' E 135°26'1 1.1
2018-Feb-21 23:00N 34°33' E 135°25'3 6.2
2018-Feb-21 22:31N 34°36' E 135°25'3 6.3
2018-Feb-21 21:58N 34°39' E 135°28'0 0.0
2018-Feb-21 21:28N 34°39' E 135°28'0 0.0
2018-Feb-21 20:55N 34°39' E 135°28'0 0.0
2018-Feb-21 20:28N 34°39' E 135°28'0 0.0
2018-Feb-21 19:58N 34°39' E 135°28'0 0.0
2018-Feb-21 19:25N 34°39' E 135°28'0 0.0
2018-Feb-21 18:58N 34°39' E 135°28'0 0.0
2018-Feb-21 18:25N 34°39' E 135°28'0 0.0
2018-Feb-21 17:58N 34°39' E 135°28'0 0.0
2018-Feb-21 17:25N 34°39' E 135°28'0 0.0
2018-Feb-21 16:58N 34°39' E 135°28'0 0.0
2018-Feb-21 16:25N 34°39' E 135°28'0 0.0
2018-Feb-21 15:55N 34°39' E 135°28'0 0.0
2018-Feb-21 15:28N 34°39' E 135°28'0 0.0
2018-Feb-21 14:58N 34°39' E 135°28'0 0.0
2018-Feb-21 14:28N 34°39' E 135°28'0 0.0
2018-Feb-21 13:59N 34°39' E 135°28'0 0.0
2018-Feb-21 13:28N 34°39' E 135°28'0 0.0
2018-Feb-21 12:58N 34°39' E 135°28'0 0.0
2018-Feb-21 12:28N 34°39' E 135°28'0 0.0
2018-Feb-21 11:58N 34°39' E 135°28'0 0.0
2018-Feb-21 11:25N 34°39' E 135°28'0 0.0
2018-Feb-21 10:58N 34°39' E 135°28'0 0.0
2018-Feb-21 10:28N 34°39' E 135°28'0 0.0
2018-Feb-21 09:55N 34°39' E 135°28'0 0.0
2018-Feb-21 09:28N 34°39' E 135°28'0 0.0
2018-Feb-21 08:58N 34°39' E 135°28'0 0.0
2018-Feb-21 08:28N 34°39' E 135°28'0 0.0
2018-Feb-21 07:58N 34°39' E 135°28'0 0.0
2018-Feb-21 07:25N 34°39' E 135°28'0 0.0
2018-Feb-21 06:55N 34°39' E 135°28'0 0.0
2018-Feb-21 06:28N 34°39' E 135°28'0 0.0
2018-Feb-21 05:55N 34°39' E 135°28'1 2.5
2018-Feb-21 05:29N 34°38' E 135°28'0 0.0
2018-Feb-21 04:59N 34°38' E 135°28'2 3.6
2018-Feb-21 04:30N 34°37' E 135°26'4 8.4
2018-Feb-21 04:00N 34°36' E 135°21'3 5.1
2018-Feb-21 03:27N 34°34' E 135°18'0 0.1
2018-Feb-21 03:00N 34°34' E 135°18'2 4.7
2018-Feb-21 02:30N 34°33' E 135°20'2 4.2
2018-Feb-21 01:58N 34°33' E 135°23'0 0.0
2018-Feb-21 01:28N 34°33' E 135°23'1 1.9
2018-Feb-21 01:00N 34°32' E 135°24'1 2.0
2018-Feb-21 00:28N 34°31' E 135°24'1 2.3
2018-Feb-21 00:00N 34°32' E 135°23'4 8.9
2018-Feb-20 23:30N 34°36' E 135°21'4 8.9
2018-Feb-20 23:00N 34°40' E 135°18'2 3.4
2018-Feb-20 22:29N 34°41' E 135°17'0 0.0
2018-Feb-20 21:59N 34°41' E 135°17'4 7.3
2018-Feb-20 21:30N 34°40' E 135°21'4 9.0
2018-Feb-20 21:01N 34°39' E 135°26'1 2.4
2018-Feb-20 20:28N 34°39' E 135°28'0 0.0
2018-Feb-20 19:58N 34°39' E 135°28'0 0.0
2018-Feb-20 19:28N 34°39' E 135°28'0 0.0
2018-Feb-20 18:58N 34°39' E 135°28'0 0.0
2018-Feb-20 18:28N 34°39' E 135°28'0 0.0
2018-Feb-20 17:58N 34°39' E 135°28'0 0.0
2018-Feb-20 17:28N 34°39' E 135°28'0 0.0
2018-Feb-20 16:58N 34°39' E 135°28'0 0.0
2018-Feb-20 16:28N 34°39' E 135°28'0 0.0
2018-Feb-20 15:58N 34°39' E 135°28'0 0.0
2018-Feb-20 15:28N 34°39' E 135°28'0 0.0
2018-Feb-20 14:58N 34°39' E 135°28'0 0.0
2018-Feb-20 14:28N 34°39' E 135°28'0 0.0
2018-Feb-20 13:58N 34°39' E 135°28'0 0.0
2018-Feb-20 13:28N 34°39' E 135°28'0 0.0
2018-Feb-20 12:58N 34°39' E 135°28'0 0.0
2018-Feb-20 12:28N 34°39' E 135°28'0 0.0
2018-Feb-20 11:58N 34°39' E 135°28'0 0.0
2018-Feb-20 11:28N 34°39' E 135°28'0 0.0
2018-Feb-20 10:58N 34°39' E 135°28'0 0.0
2018-Feb-20 10:28N 34°39' E 135°28'0 0.0
2018-Feb-20 09:58N 34°39' E 135°28'0 0.0
2018-Feb-20 09:25N 34°39' E 135°28'0 0.0
2018-Feb-20 08:58N 34°39' E 135°28'0 0.0
2018-Feb-20 08:28N 34°39' E 135°28'0 0.0
2018-Feb-20 07:58N 34°39' E 135°28'0 0.0
2018-Feb-20 07:28N 34°39' E 135°28'0 0.0
2018-Feb-20 06:58N 34°39' E 135°28'0 0.0
2018-Feb-20 06:28N 34°39' E 135°28'0 0.0
2018-Feb-20 05:58N 34°39' E 135°28'0 0.0
2018-Feb-20 05:28N 34°39' E 135°28'0 0.0
2018-Feb-20 04:55N 34°39' E 135°28'0 0.0
2018-Feb-20 04:25N 34°39' E 135°28'0 0.0
2018-Feb-20 03:58N 34°39' E 135°28'0 0.0
2018-Feb-20 03:28N 34°39' E 135°28'0 0.0
2018-Feb-20 02:58N 34°39' E 135°28'0 0.0
2018-Feb-20 02:28N 34°39' E 135°28'0 0.0
2018-Feb-20 01:58N 34°39' E 135°28'0 0.0
2018-Feb-20 01:28N 34°39' E 135°28'0 0.0
2018-Feb-20 00:58N 34°39' E 135°28'0 0.0
2018-Feb-20 00:25N 34°39' E 135°28'0 0.0
2018-Feb-19 23:58N 34°39' E 135°28'0 0.0
2018-Feb-19 23:28N 34°39' E 135°28'0 0.0
2018-Feb-19 22:58N 34°39' E 135°28'0 0.0
2018-Feb-19 22:28N 34°39' E 135°28'0 0.0
2018-Feb-19 21:58N 34°39' E 135°28'0 0.0
2018-Feb-19 21:25N 34°39' E 135°28'0 0.0
2018-Feb-19 20:58N 34°39' E 135°28'0 0.0
2018-Feb-19 20:28N 34°39' E 135°28'0 0.0
2018-Feb-19 19:58N 34°39' E 135°28'0 0.0
2018-Feb-19 19:28N 34°39' E 135°28'0 0.0
2018-Feb-19 18:58N 34°39' E 135°28'0 0.0
2018-Feb-19 18:28N 34°39' E 135°28'0 0.0
2018-Feb-19 17:58N 34°39' E 135°28'0 0.0
2018-Feb-19 17:28N 34°39' E 135°28'0 0.0
2018-Feb-19 16:58N 34°39' E 135°28'0 0.0
2018-Feb-19 16:25N 34°39' E 135°28'0 0.0
2018-Feb-19 15:58N 34°39' E 135°28'0 0.0
2018-Feb-19 15:28N 34°39' E 135°28'0 0.0
2018-Feb-19 14:58N 34°39' E 135°28'0 0.0
2018-Feb-19 14:28N 34°39' E 135°28'0 0.0
2018-Feb-19 13:58N 34°39' E 135°28'0 0.0
2018-Feb-19 13:28N 34°39' E 135°28'0 0.0
2018-Feb-19 12:58N 34°39' E 135°28'0 0.0
2018-Feb-19 12:28N 34°39' E 135°28'0 0.0
2018-Feb-19 11:58N 34°39' E 135°28'0 0.0
2018-Feb-19 11:28N 34°39' E 135°28'0 0.0
2018-Feb-19 10:58N 34°39' E 135°28'0 0.0
2018-Feb-19 10:25N 34°39' E 135°28'0 0.0
2018-Feb-19 09:58N 34°39' E 135°28'0 0.0
2018-Feb-19 09:28N 34°39' E 135°28'0 0.0
2018-Feb-19 08:58N 34°39' E 135°28'0 0.0
2018-Feb-19 08:22N 34°39' E 135°28'0 0.0
2018-Feb-19 07:58N 34°39' E 135°28'0 0.8
2018-Feb-19 07:30N 34°39' E 135°27'4 8.3
2018-Feb-19 07:00N 34°35' E 135°24'3 5.2
2018-Feb-19 06:28N 34°33' E 135°26'0 0.0
2018-Feb-19 05:58N 34°33' E 135°26'0 0.0
2018-Feb-19 05:28N 34°33' E 135°26'1 2.5
2018-Feb-19 05:00N 34°33' E 135°24'3 6.8
2018-Feb-19 04:30N 34°37' E 135°25'3 4.9
2018-Feb-19 03:59N 34°35' E 135°23'0 0.0
2018-Feb-19 03:29N 34°35' E 135°23'0 0.0
2018-Feb-19 02:59N 34°35' E 135°23'1 3.0
2018-Feb-19 02:30N 34°36' E 135°24'3 5.1
2018-Feb-19 01:58N 34°38' E 135°27'0 0.1
2018-Feb-19 01:28N 34°38' E 135°27'0 0.1
2018-Feb-19 00:58N 34°38' E 135°27'0 0.1
2018-Feb-19 00:28N 34°38' E 135°27'0 0.0
2018-Feb-18 23:58N 34°38' E 135°27'1 1.7
2018-Feb-18 23:28N 34°38' E 135°28'0 0.0
2018-Feb-18 22:58N 34°38' E 135°28'0 0.0
2018-Feb-18 22:30N 34°38' E 135°28'3 6.9
2018-Feb-18 22:00N 34°40' E 135°24'2 3.5
2018-Feb-18 21:30N 34°39' E 135°22'1 1.8
2018-Feb-18 21:00N 34°40' E 135°22'4 8.6
2018-Feb-18 20:31N 34°39' E 135°27'0 0.4
2018-Feb-18 20:00N 34°39' E 135°28'0 0.0
2018-Feb-18 19:30N 34°39' E 135°28'0 0.0
2018-Feb-18 19:00N 34°39' E 135°28'0 0.0
2018-Feb-18 18:30N 34°39' E 135°28'0 0.0
2018-Feb-18 18:00N 34°39' E 135°28'0 0.0
2018-Feb-18 17:30N 34°39' E 135°28'0 0.0
2018-Feb-18 16:57N 34°39' E 135°28'0 0.0
2018-Feb-18 16:30N 34°39' E 135°28'0 0.0
2018-Feb-18 16:00N 34°39' E 135°28'0 0.0
2018-Feb-18 15:30N 34°39' E 135°28'0 0.0
2018-Feb-18 15:00N 34°39' E 135°28'0 0.0
2018-Feb-18 14:30N 34°39' E 135°28'0 0.0
2018-Feb-18 14:00N 34°39' E 135°28'0 0.0
2018-Feb-18 13:30N 34°39' E 135°28'0 0.0
2018-Feb-18 13:00N 34°39' E 135°28'0 0.0
2018-Feb-18 12:30N 34°39' E 135°28'0 0.0
2018-Feb-18 12:00N 34°39' E 135°28'0 0.0
2018-Feb-18 11:30N 34°39' E 135°28'0 0.0
2018-Feb-18 11:00N 34°39' E 135°28'0 0.0
2018-Feb-18 10:30N 34°39' E 135°28'0 0.0
2018-Feb-18 10:00N 34°39' E 135°28'0 0.0
2018-Feb-18 09:30N 34°39' E 135°28'0 0.0
2018-Feb-18 09:00N 34°39' E 135°28'0 0.0
2018-Feb-18 08:30N 34°39' E 135°28'0 0.0
2018-Feb-18 08:00N 34°39' E 135°28'2 3.5
2018-Feb-18 07:30N 34°37' E 135°26'3 6.0
2018-Feb-18 06:59N 34°34' E 135°26'0 0.0
2018-Feb-18 06:29N 34°34' E 135°26'0 0.0
2018-Feb-18 05:57N 34°34' E 135°26'4 8.3
2018-Feb-18 05:30N 34°37' E 135°23'5 9.7
2018-Feb-18 05:00N 34°41' E 135°19'2 3.7
2018-Feb-18 04:29N 34°42' E 135°17'0 0.0
2018-Feb-18 03:59N 34°42' E 135°17'0 0.0
2018-Feb-18 03:29N 34°42' E 135°17'3 5.5
2018-Feb-18 03:00N 34°41' E 135°14'2 3.1
2018-Feb-18 02:30N 34°41' E 135°12'1 2.2
2018-Feb-18 02:00N 34°40' E 135°12'0 0.9
2018-Feb-18 01:29N 34°39' E 135°12'2 3.9
2018-Feb-18 01:00N 34°39' E 135°14'5 9.6
2018-Feb-18 00:29N 34°39' E 135°20'4 9.4
2018-Feb-18 00:00N 34°39' E 135°26'2 3.0
2018-Feb-17 23:29N 34°39' E 135°28'0 0.0
2018-Feb-17 22:59N 34°39' E 135°28'0 0.0
2018-Feb-17 22:29N 34°39' E 135°28'0 0.0
2018-Feb-17 21:59N 34°39' E 135°28'0 0.0
2018-Feb-17 21:29N 34°39' E 135°28'0 0.0
2018-Feb-17 20:59N 34°39' E 135°28'0 0.0
2018-Feb-17 20:29N 34°39' E 135°28'0 0.0
2018-Feb-17 19:59N 34°39' E 135°28'0 0.0
2018-Feb-17 19:29N 34°39' E 135°28'0 0.0
2018-Feb-17 18:59N 34°39' E 135°28'0 0.0
2018-Feb-17 18:29N 34°39' E 135°28'0 0.0
2018-Feb-17 17:59N 34°39' E 135°28'0 0.0
2018-Feb-17 17:29N 34°39' E 135°28'0 0.0
2018-Feb-17 16:59N 34°39' E 135°28'0 0.0
2018-Feb-17 16:26N 34°39' E 135°28'0 0.0
2018-Feb-17 15:59N 34°39' E 135°28'0 0.0
2018-Feb-17 15:29N 34°39' E 135°28'0 0.0
2018-Feb-17 14:59N 34°39' E 135°28'0 0.0
2018-Feb-17 14:29N 34°39' E 135°28'0 0.0
2018-Feb-17 13:59N 34°39' E 135°28'0 0.0
2018-Feb-17 13:26N 34°39' E 135°28'0 0.0
2018-Feb-17 12:59N 34°39' E 135°28'0 0.0
2018-Feb-17 12:29N 34°39' E 135°28'0 0.0
2018-Feb-17 11:59N 34°39' E 135°28'0 0.0
2018-Feb-17 11:29N 34°39' E 135°28'0 0.0
2018-Feb-17 10:59N 34°39' E 135°28'0 0.0
2018-Feb-17 10:29N 34°39' E 135°28'0 0.0
2018-Feb-17 09:59N 34°39' E 135°28'0 0.0
2018-Feb-17 09:29N 34°39' E 135°28'0 0.0
2018-Feb-17 08:59N 34°39' E 135°28'0 0.0
2018-Feb-17 08:29N 34°39' E 135°28'0 0.0
2018-Feb-17 07:59N 34°39' E 135°28'0 0.0
2018-Feb-17 07:29N 34°39' E 135°28'0 0.0
2018-Feb-17 06:56N 34°39' E 135°28'0 0.0
2018-Feb-17 06:29N 34°39' E 135°28'0 0.0
2018-Feb-17 05:59N 34°39' E 135°28'0 0.0
2018-Feb-17 05:29N 34°39' E 135°28'0 0.0
2018-Feb-17 04:59N 34°39' E 135°28'0 0.0
2018-Feb-17 04:29N 34°39' E 135°28'1 1.4
2018-Feb-17 04:01N 34°38' E 135°27'4 7.9
2018-Feb-17 03:31N 34°35' E 135°26'0 0.8
2018-Feb-17 03:00N 34°34' E 135°26'0 0.0
2018-Feb-17 02:30N 34°34' E 135°26'2 3.2
2018-Feb-17 02:00N 34°36' E 135°25'2 4.4
2018-Feb-17 01:28N 34°38' E 135°25'0 0.0
2018-Feb-17 00:58N 34°38' E 135°25'0 0.0
2018-Feb-17 00:28N 34°38' E 135°25'1 2.9
2018-Feb-17 00:01N 34°38' E 135°23'4 8.8
2018-Feb-16 23:31N 34°33' E 135°24'2 3.8
2018-Feb-16 22:59N 34°31' E 135°24'0 0.7
2018-Feb-16 22:29N 34°31' E 135°24'2 3.8
2018-Feb-16 22:00N 34°33' E 135°24'4 8.8
2018-Feb-16 21:30N 34°36' E 135°20'5 9.2
2018-Feb-16 21:00N 34°39' E 135°15'3 7.0
2018-Feb-16 20:30N 34°41' E 135°12'0 0.0
2018-Feb-16 20:00N 34°41' E 135°12'3 6.5
2018-Feb-16 19:30N 34°39' E 135°15'4 8.7
2018-Feb-16 19:00N 34°39' E 135°20'4 8.8
2018-Feb-16 18:30N 34°39' E 135°26'2 3.1
2018-Feb-16 17:59N 34°39' E 135°28'0 0.0
2018-Feb-16 17:26N 34°39' E 135°28'0 0.0
2018-Feb-16 16:56N 34°39' E 135°28'0 0.0
2018-Feb-16 16:20N 34°39' E 135°28'0 0.0
2018-Feb-16 15:59N 34°39' E 135°28'0 0.0
2018-Feb-16 15:29N 34°39' E 135°28'0 0.0
2018-Feb-16 14:59N 34°39' E 135°28'0 0.0
2018-Feb-16 14:29N 34°39' E 135°28'0 0.0
2018-Feb-16 13:59N 34°39' E 135°28'0 0.0
2018-Feb-16 13:29N 34°39' E 135°28'0 0.0
2018-Feb-16 12:56N 34°39' E 135°28'0 0.0
2018-Feb-16 12:29N 34°39' E 135°28'0 0.0
2018-Feb-16 11:59N 34°39' E 135°28'0 0.0
2018-Feb-16 11:26N 34°39' E 135°28'0 0.0
2018-Feb-16 10:59N 34°39' E 135°28'0 0.0
2018-Feb-16 10:29N 34°39' E 135°28'0 0.0
2018-Feb-16 09:56N 34°39' E 135°28'0 0.0
2018-Feb-16 09:29N 34°39' E 135°28'0 0.0
2018-Feb-16 08:56N 34°39' E 135°28'0 0.0
2018-Feb-16 08:26N 34°39' E 135°28'0 0.0
2018-Feb-16 07:56N 34°39' E 135°28'0 0.0
2018-Feb-16 07:29N 34°39' E 135°28'0 0.0
2018-Feb-16 07:00N 34°39' E 135°28'3 6.6
2018-Feb-16 06:30N 34°36' E 135°25'3 6.4
2018-Feb-16 06:00N 34°33' E 135°26'0 0.3
2018-Feb-16 05:30N 34°33' E 135°26'0 0.0
2018-Feb-16 05:00N 34°33' E 135°26'0 0.3
2018-Feb-16 04:27N 34°33' E 135°26'0 0.1
2018-Feb-16 03:58N 34°33' E 135°26'0 0.0
2018-Feb-16 03:28N 34°33' E 135°26'2 3.6
2018-Feb-16 03:00N 34°34' E 135°24'3 5.8
2018-Feb-16 02:25N 34°37' E 135°26'0 0.1
2018-Feb-16 01:58N 34°37' E 135°26'0 0.1
2018-Feb-16 01:28N 34°37' E 135°26'0 0.0
2018-Feb-16 00:58N 34°37' E 135°26'0 0.2
2018-Feb-16 00:30N 34°37' E 135°26'4 8.0
2018-Feb-16 00:00N 34°37' E 135°21'4 8.9
2018-Feb-15 23:30N 34°37' E 135°16'1 1.5
2018-Feb-15 23:00N 34°37' E 135°15'0 0.0
2018-Feb-15 22:30N 34°37' E 135°15'0 0.5
2018-Feb-15 22:00N 34°37' E 135°15'5 9.0
2018-Feb-15 21:30N 34°38' E 135°20'5 9.1
2018-Feb-15 21:00N 34°39' E 135°26'2 2.9
2018-Feb-15 20:28N 34°39' E 135°28'0 0.0
2018-Feb-15 19:58N 34°39' E 135°28'0 0.0
2018-Feb-15 19:25N 34°39' E 135°28'0 0.0
2018-Feb-15 18:58N 34°39' E 135°28'0 0.0
2018-Feb-15 18:28N 34°39' E 135°28'0 0.0
2018-Feb-15 17:58N 34°39' E 135°28'0 0.0
2018-Feb-15 17:28N 34°39' E 135°28'0 0.0
2018-Feb-15 16:58N 34°39' E 135°28'0 0.0
2018-Feb-15 16:28N 34°39' E 135°28'0 0.0
2018-Feb-15 15:58N 34°39' E 135°28'0 0.0
2018-Feb-15 15:28N 34°39' E 135°28'0 0.0
2018-Feb-15 14:58N 34°39' E 135°28'0 0.0
2018-Feb-15 14:28N 34°39' E 135°28'0 0.0
2018-Feb-15 13:58N 34°39' E 135°28'0 0.0
2018-Feb-15 13:28N 34°39' E 135°28'0 0.0
2018-Feb-15 12:58N 34°39' E 135°28'0 0.0
2018-Feb-15 12:28N 34°39' E 135°28'0 0.0
2018-Feb-15 11:58N 34°39' E 135°28'0 0.0
2018-Feb-15 11:28N 34°39' E 135°28'0 0.0
2018-Feb-15 10:55N 34°39' E 135°28'0 0.0
2018-Feb-15 10:28N 34°39' E 135°28'0 0.0
2018-Feb-15 09:58N 34°39' E 135°28'0 0.0
2018-Feb-15 09:28N 34°39' E 135°28'0 0.0
2018-Feb-15 08:58N 34°39' E 135°28'0 0.0
2018-Feb-15 08:28N 34°39' E 135°28'0 0.0
2018-Feb-15 07:58N 34°39' E 135°28'0 0.0
2018-Feb-15 07:28N 34°39' E 135°28'0 0.0
2018-Feb-15 06:58N 34°39' E 135°28'0 0.0
2018-Feb-15 06:25N 34°39' E 135°28'0 0.0
2018-Feb-15 05:58N 34°39' E 135°28'0 0.0
2018-Feb-15 05:28N 34°39' E 135°28'0 0.0
2018-Feb-15 04:58N 34°39' E 135°28'0 0.0
2018-Feb-15 04:28N 34°39' E 135°28'0 0.0
2018-Feb-15 03:55N 34°39' E 135°28'0 0.0
2018-Feb-15 03:28N 34°39' E 135°28'0 0.0
2018-Feb-15 02:58N 34°39' E 135°28'0 0.0
2018-Feb-15 02:28N 34°39' E 135°28'0 0.0
2018-Feb-15 01:55N 34°39' E 135°28'0 0.0
2018-Feb-15 01:28N 34°39' E 135°28'0 0.0
2018-Feb-15 00:58N 34°39' E 135°28'0 0.0
2018-Feb-15 00:25N 34°39' E 135°28'0 0.0
2018-Feb-14 23:58N 34°39' E 135°28'0 0.0
2018-Feb-14 23:28N 34°39' E 135°28'0 0.0
2018-Feb-14 22:58N 34°39' E 135°28'0 0.0
2018-Feb-14 22:25N 34°39' E 135°28'0 0.0
2018-Feb-14 21:58N 34°39' E 135°28'0 0.0
2018-Feb-14 21:28N 34°39' E 135°28'0 0.0
2018-Feb-14 20:58N 34°39' E 135°28'0 0.0
2018-Feb-14 20:28N 34°39' E 135°28'0 0.0
2018-Feb-14 19:55N 34°39' E 135°28'  

Dump ship's entire track history